createdAt,value
2023-03-06T00:01:00.586Z,3.60
2023-03-06T00:03:28.241Z,4.00
2023-03-06T00:05:57.639Z,3.10
2023-03-06T00:08:26.572Z,3.40
2023-03-06T00:10:53.808Z,3.53
2023-03-06T00:13:21.018Z,3.50
2023-03-06T00:15:49.308Z,3.63
2023-03-06T00:18:16.389Z,3.33
2023-03-06T00:20:44.295Z,3.17
2023-03-06T00:23:11.927Z,3.50
2023-03-06T00:25:43.157Z,3.23
2023-03-06T00:28:10.367Z,3.40
2023-03-06T00:30:37.718Z,3.60
2023-03-06T00:33:04.920Z,3.97
2023-03-06T00:35:31.841Z,4.00
2023-03-06T00:37:59.896Z,3.60
2023-03-06T00:40:27.513Z,4.00
2023-03-06T00:42:54.442Z,3.70
2023-03-06T00:45:21.446Z,3.57
2023-03-06T00:47:48.460Z,2.90
2023-03-06T00:50:15.500Z,3.03
2023-03-06T00:52:42.583Z,2.90
2023-03-06T00:55:10.751Z,2.63
2023-03-06T00:57:37.744Z,2.87
2023-03-06T01:00:06.312Z,2.77
2023-03-06T01:02:33.818Z,2.73
2023-03-06T01:05:00.802Z,2.70
2023-03-06T01:07:27.938Z,3.00
2023-03-06T01:09:54.887Z,2.60
2023-03-06T01:12:23.516Z,3.10
2023-03-06T01:14:51.627Z,2.90
2023-03-06T01:17:18.572Z,2.93
2023-03-06T01:19:45.518Z,2.30
2023-03-06T01:22:14.266Z,2.60
2023-03-06T01:24:41.162Z,3.00
2023-03-06T01:27:08.409Z,2.90
2023-03-06T01:29:35.385Z,3.03
2023-03-06T01:32:03.720Z,3.23
2023-03-06T01:34:30.864Z,2.73
2023-03-06T01:36:57.925Z,3.00
2023-03-06T01:39:25.110Z,3.40
2023-03-06T01:41:52.261Z,3.00
2023-03-06T01:44:21.139Z,3.23
2023-03-06T01:46:53.700Z,3.63
2023-03-06T01:49:25.855Z,3.27
2023-03-06T01:52:01.856Z,3.10
2023-03-06T01:54:35.232Z,2.88
2023-03-06T01:57:10.239Z,2.97
2023-03-06T01:59:39.390Z,3.57
2023-03-06T02:02:10.740Z,3.33
2023-03-06T02:04:40.451Z,3.27
2023-03-06T02:07:08.522Z,3.20
2023-03-06T02:09:37.634Z,3.60
2023-03-06T02:12:14.493Z,3.63
2023-03-06T02:14:42.581Z,3.87
2023-03-06T02:17:12.865Z,3.83
2023-03-06T02:20:13.103Z,4.60
2023-03-06T02:23:11.627Z,4.03
2023-03-06T02:25:41.533Z,3.90
2023-03-06T02:28:13.786Z,4.20
2023-03-06T02:30:42.616Z,4.37
2023-03-06T02:33:19.264Z,4.33
2023-03-06T02:35:55.622Z,4.35
2023-03-06T02:38:28.164Z,6.38
2023-03-06T02:41:02.385Z,3.93
2023-03-06T02:43:37.831Z,3.87
2023-03-06T02:46:04.946Z,4.10
2023-03-06T02:48:32.433Z,3.93
2023-03-06T02:51:00.092Z,3.43
2023-03-06T02:53:27.519Z,3.70
2023-03-06T02:55:54.758Z,3.57
2023-03-06T02:58:21.848Z,3.47
2023-03-06T03:00:49.718Z,3.77
2023-03-06T03:03:18.070Z,4.00
2023-03-06T03:05:44.940Z,3.93
2023-03-06T03:08:19.753Z,4.23
2023-03-06T03:10:48.489Z,3.87
2023-03-06T03:13:15.620Z,4.57
2023-03-06T03:15:42.690Z,4.30
2023-03-06T03:18:11.591Z,4.57
2023-03-06T03:20:42.359Z,4.67
2023-03-06T03:23:09.516Z,3.93
2023-03-06T03:25:36.494Z,4.50
2023-03-06T03:28:04.093Z,4.93
2023-03-06T03:30:31.333Z,4.67
2023-03-06T03:33:01.598Z,5.00
2023-03-06T03:35:28.880Z,3.83
2023-03-06T03:37:57.186Z,4.73
2023-03-06T03:40:24.188Z,5.40
2023-03-06T03:42:51.735Z,4.93
2023-03-06T03:45:19.948Z,4.83
2023-03-06T03:47:46.967Z,4.87
2023-03-06T03:50:14.180Z,5.53
2023-03-06T03:52:41.440Z,5.10
2023-03-06T03:55:08.704Z,5.10
2023-03-06T03:57:39.293Z,5.13
2023-03-06T04:00:08.241Z,6.00
2023-03-06T04:02:45.690Z,5.10
2023-03-06T04:05:30.035Z,5.67
2023-03-06T04:07:57.544Z,5.40
2023-03-06T04:10:24.495Z,5.30
2023-03-06T04:12:51.670Z,6.10
2023-03-06T04:15:18.731Z,5.60
2023-03-06T04:17:47.188Z,6.00
2023-03-06T04:20:18.048Z,5.70
2023-03-06T04:22:46.711Z,5.87
2023-03-06T04:25:13.849Z,5.77
2023-03-06T04:27:41.477Z,5.53
2023-03-06T04:30:09.381Z,6.10
2023-03-06T04:32:36.723Z,6.00
2023-03-06T04:35:05.376Z,7.30
2023-03-06T04:37:37.222Z,7.03
2023-03-06T04:40:05.607Z,6.73
2023-03-06T04:42:32.816Z,7.93
2023-03-06T04:45:04.353Z,7.07
2023-03-06T04:47:31.448Z,6.83
2023-03-06T04:49:58.322Z,7.57
2023-03-06T04:52:25.237Z,6.80
2023-03-06T04:54:52.257Z,7.80
2023-03-06T04:57:19.155Z,6.97
2023-03-06T04:59:46.173Z,8.03
2023-03-06T05:02:13.178Z,7.13
2023-03-06T05:04:40.120Z,7.70
2023-03-06T05:07:07.038Z,7.47
2023-03-06T05:09:38.839Z,6.57
2023-03-06T05:12:06.393Z,6.13
2023-03-06T05:14:33.349Z,7.27
2023-03-06T05:17:00.484Z,6.43
2023-03-06T05:19:27.575Z,5.53
2023-03-06T05:21:54.447Z,5.70
2023-03-06T05:24:21.500Z,6.43
2023-03-06T05:26:48.432Z,6.13
2023-03-06T05:29:15.350Z,6.60
2023-03-06T05:31:42.299Z,5.27
2023-03-06T05:34:13.499Z,6.00
2023-03-06T05:36:40.410Z,6.33
2023-03-06T05:39:07.867Z,6.77
2023-03-06T05:41:35.301Z,5.77
2023-03-06T05:44:02.412Z,6.30
2023-03-06T05:46:29.322Z,6.40
2023-03-06T05:48:57.608Z,6.00
2023-03-06T05:51:26.729Z,5.43
2023-03-06T05:53:53.785Z,6.13
2023-03-06T05:56:21.960Z,6.23
2023-03-06T05:58:49.010Z,5.03
2023-03-06T06:01:18.754Z,5.33
2023-03-06T06:03:46.470Z,4.63
2023-03-06T06:06:15.264Z,5.00
2023-03-06T06:08:42.329Z,4.23
2023-03-06T06:11:11.256Z,5.10
2023-03-06T06:13:38.872Z,4.30
2023-03-06T06:16:19.205Z,5.70
2023-03-06T06:18:46.375Z,4.43
2023-03-06T06:21:14.818Z,4.40
2023-03-06T06:23:42.058Z,4.80
2023-03-06T06:26:10.409Z,4.27
2023-03-06T06:28:37.460Z,4.67
2023-03-06T06:31:12.421Z,4.23
2023-03-06T06:33:40.719Z,3.70
2023-03-06T06:36:16.100Z,4.27
2023-03-06T06:38:43.468Z,4.00
2023-03-06T06:41:35.982Z,4.30
2023-03-06T06:47:14.377Z,3.83
2023-03-06T06:49:14.947Z,3.40
2023-03-06T06:51:42.206Z,3.40
2023-03-06T06:54:11.118Z,3.47
2023-03-06T06:56:38.470Z,3.53
2023-03-06T06:59:15.978Z,3.30
2023-03-06T07:01:43.929Z,3.43
2023-03-06T07:04:14.308Z,3.33
2023-03-06T07:06:42.208Z,3.10
2023-03-06T07:09:09.181Z,5.27
2023-03-06T07:11:37.857Z,3.13
2023-03-06T07:14:05.302Z,3.00
2023-03-06T07:16:32.241Z,3.00
2023-03-06T07:18:59.102Z,2.22
2023-03-06T07:21:25.976Z,2.67
2023-03-06T07:23:54.369Z,2.75
2023-03-06T07:26:21.413Z,2.60
2023-03-06T07:28:53.136Z,2.60
2023-03-06T07:31:22.567Z,2.53
2023-03-06T07:33:50.367Z,2.80
2023-03-06T07:36:18.239Z,3.22
2023-03-06T07:38:45.604Z,2.60
2023-03-06T07:41:15.405Z,2.60
2023-03-06T07:43:51.993Z,3.10
2023-03-06T07:46:23.515Z,3.50
2023-03-06T07:48:50.399Z,3.33
2023-03-06T07:51:20.128Z,2.97
2023-03-06T07:53:47.719Z,2.90
2023-03-06T07:56:14.862Z,2.80
2023-03-06T07:58:44.927Z,2.70
2023-03-06T08:01:15.245Z,2.42
2023-03-06T08:03:42.874Z,2.95
2023-03-06T08:06:15.405Z,2.53
2023-03-06T08:08:44.521Z,2.85
2023-03-06T08:11:12.837Z,3.28
2023-03-06T08:13:40.501Z,3.05
2023-03-06T08:16:08.346Z,2.63
2023-03-06T08:18:35.612Z,2.30
2023-03-06T08:21:09.583Z,2.33
2023-03-06T08:23:37.175Z,2.35
2023-03-06T08:26:07.107Z,2.20
2023-03-06T08:28:42.033Z,2.20
2023-03-06T08:31:40.817Z,2.55
2023-03-06T08:34:10.459Z,2.17
2023-03-06T08:36:37.673Z,2.60
2023-03-06T08:39:05.255Z,2.50
2023-03-06T08:41:33.339Z,1.83
2023-03-06T08:44:00.896Z,2.00
2023-03-06T08:46:30.009Z,2.00
2023-03-06T08:48:57.742Z,1.58
2023-03-06T08:51:25.108Z,2.15
2023-03-06T08:53:52.282Z,2.10
2023-03-06T08:56:28.491Z,2.05
2023-03-06T08:58:57.586Z,1.70
2023-03-06T09:01:28.560Z,2.08
2023-03-06T09:03:57.936Z,1.73
2023-03-06T09:06:26.648Z,2.05
2023-03-06T09:08:54.598Z,2.08
2023-03-06T09:11:23.716Z,2.53
2023-03-06T09:13:50.842Z,2.90
2023-03-06T09:16:18.244Z,2.60
2023-03-06T09:18:45.587Z,2.50
2023-03-06T09:21:25.094Z,1.98
2023-03-06T09:23:52.560Z,1.75
2023-03-06T09:26:19.640Z,2.17
2023-03-06T09:28:47.063Z,2.25
2023-03-06T09:31:17.411Z,2.33
2023-03-06T09:33:45.351Z,2.00
2023-03-06T09:36:17.794Z,1.80
2023-03-06T09:38:45.980Z,1.50
2023-03-06T09:41:30.506Z,2.25
2023-03-06T09:44:18.843Z,1.88
2023-03-06T09:47:03.782Z,2.00
2023-03-06T09:49:57.550Z,1.90
2023-03-06T09:52:34.047Z,2.08
2023-03-06T09:55:20.464Z,2.17
2023-03-06T09:58:07.464Z,2.35
2023-03-06T10:03:22.590Z,1.58
2023-03-06T10:06:02.765Z,1.70
2023-03-06T10:08:48.506Z,1.80
2023-03-06T10:11:22.930Z,1.85
2023-03-06T10:14:01.172Z,1.45
2023-03-06T10:16:33.219Z,1.50
2023-03-06T10:19:03.640Z,1.52
2023-03-06T10:21:45.513Z,1.50
2023-03-06T10:24:49.472Z,2.00
2023-03-06T10:27:17.021Z,1.55
2023-03-06T10:30:01.711Z,1.77
2023-03-06T10:32:49.492Z,1.92
2023-03-06T10:35:25.788Z,1.67
2023-03-06T10:38:01.115Z,2.08
2023-03-06T10:40:38.499Z,2.17
2023-03-06T10:43:12.174Z,2.00
2023-03-06T10:45:51.374Z,1.73
2023-03-06T10:48:24.593Z,1.90
2023-03-06T10:50:53.528Z,2.00
2023-03-06T10:53:29.248Z,2.15
2023-03-06T10:56:00.511Z,2.00
2023-03-06T10:58:30.363Z,1.80
2023-03-06T11:01:01.979Z,2.00
2023-03-06T11:03:29.615Z,1.60
2023-03-06T11:06:13.350Z,2.03
2023-03-06T11:08:43.469Z,1.90
2023-03-06T11:11:36.841Z,1.75
2023-03-06T11:14:15.885Z,2.03
2023-03-06T11:16:53.443Z,2.35
2023-03-06T11:19:23.675Z,2.05
2023-03-06T11:22:17.378Z,1.98
2023-03-06T11:24:48.757Z,2.30
2023-03-06T11:27:15.607Z,1.85
2023-03-06T11:29:48.806Z,2.13
2023-03-06T11:32:57.871Z,2.45
2023-03-06T11:35:52.089Z,1.65
2023-03-06T11:38:38.994Z,1.80
2023-03-06T11:41:14.943Z,1.75
2023-03-06T11:43:53.169Z,1.63
2023-03-06T11:46:26.474Z,1.60
2023-03-06T11:49:04.678Z,1.38
2023-03-06T11:51:38.149Z,1.83
2023-03-06T11:54:05.315Z,2.53
2023-03-06T11:56:44.455Z,1.60
2023-03-06T11:59:29.141Z,1.52
2023-03-06T12:02:20.292Z,1.80
2023-03-06T12:05:09.872Z,1.73
2023-03-06T12:07:45.025Z,1.90
2023-03-06T12:10:35.538Z,2.05
2023-03-06T12:13:30.203Z,1.90
2023-03-06T12:16:18.618Z,1.60
2023-03-06T12:19:22.242Z,2.15
2023-03-06T12:22:23.380Z,2.15
2023-03-06T12:24:56.352Z,2.10
2023-03-06T12:27:35.018Z,1.83
2023-03-06T12:30:09.984Z,1.95
2023-03-06T12:32:55.860Z,1.90
2023-03-06T12:35:56.998Z,1.95
2023-03-06T12:38:52.141Z,1.88
2023-03-06T12:41:34.333Z,2.05
2023-03-06T12:44:07.410Z,2.38
2023-03-06T12:46:58.835Z,2.10
2023-03-06T12:49:38.828Z,2.33
2023-03-06T12:52:18.529Z,2.40
2023-03-06T12:54:46.154Z,2.05
2023-03-06T12:57:15.753Z,2.20
2023-03-06T12:59:50.146Z,1.70
2023-03-06T13:02:41.714Z,2.20
2023-03-06T13:05:41.503Z,2.00
2023-03-06T13:08:17.500Z,2.30
2023-03-06T13:10:48.696Z,2.85
2023-03-06T13:13:45.936Z,2.47
2023-03-06T13:16:18.873Z,2.80
2023-03-06T13:18:51.081Z,2.63
2023-03-06T13:21:42.738Z,2.53
2023-03-06T13:24:23.112Z,2.40
2023-03-06T13:27:00.029Z,2.73
2023-03-06T13:29:38.993Z,2.78
2023-03-06T13:32:17.263Z,2.53
2023-03-06T13:34:48.589Z,2.50
2023-03-06T13:37:23.277Z,3.10
2023-03-06T13:39:56.781Z,3.30
2023-03-06T13:42:38.014Z,2.92
2023-03-06T13:45:15.107Z,2.45
2023-03-06T13:48:09.630Z,1.33
2023-03-06T13:50:29.132Z,1.70
2023-03-06T13:53:17.198Z,1.60
2023-03-06T13:56:53.197Z,1.33
2023-03-06T13:59:38.795Z,1.60
2023-03-06T14:02:27.265Z,1.20
2023-03-06T14:05:02.465Z,1.40
2023-03-06T14:07:33.658Z,1.70
2023-03-06T14:10:15.154Z,1.40
2023-03-06T14:12:51.203Z,1.60
2023-03-06T14:15:24.892Z,1.65
2023-03-06T14:18:02.317Z,1.57
2023-03-06T14:21:04.761Z,1.50
2023-03-06T14:23:35.631Z,1.90
2023-03-06T14:26:05.483Z,2.60
2023-03-06T14:28:34.337Z,3.27
2023-03-06T14:31:03.600Z,2.80
2023-03-06T14:33:40.237Z,2.77
2023-03-06T14:36:10.764Z,3.50
2023-03-06T14:38:44.244Z,3.70
2023-03-06T14:41:13.040Z,2.80
2023-03-06T14:43:41.002Z,3.23
2023-03-06T14:46:18.327Z,3.10
2023-03-06T14:48:47.000Z,2.93
2023-03-06T14:51:25.605Z,3.13
2023-03-06T14:53:54.598Z,2.97
2023-03-06T14:56:26.511Z,2.47
2023-03-06T14:59:03.984Z,1.93
2023-03-06T15:01:31.094Z,2.37
2023-03-06T15:04:00.431Z,2.67
2023-03-06T15:06:37.831Z,2.40
2023-03-06T15:09:24.472Z,1.93
2023-03-06T15:12:03.819Z,2.08
2023-03-06T15:14:41.962Z,2.37
2023-03-06T15:17:18.041Z,2.50
2023-03-06T15:19:47.674Z,1.85
2023-03-06T15:22:25.562Z,2.00
2023-03-06T15:24:53.357Z,2.03
2023-03-06T15:27:29.602Z,1.83
2023-03-06T15:30:36.529Z,2.10
2023-03-06T15:33:25.755Z,2.07
2023-03-06T15:35:52.800Z,1.90
2023-03-06T15:38:41.924Z,2.00
2023-03-06T15:41:31.394Z,2.20
2023-03-06T15:44:00.345Z,2.40
2023-03-06T15:46:28.002Z,2.17
2023-03-06T15:48:59.787Z,2.23
2023-03-06T15:51:28.678Z,2.40
2023-03-06T15:54:09.693Z,2.50
2023-03-06T15:56:44.629Z,2.87
2023-03-06T15:59:24.698Z,3.07
2023-03-06T16:01:52.527Z,2.53
2023-03-06T16:04:20.041Z,2.57
2023-03-06T16:06:47.218Z,2.30
2023-03-06T16:09:14.604Z,2.47
2023-03-06T16:11:44.934Z,2.80
2023-03-06T16:14:23.976Z,2.67
2023-03-06T16:16:54.183Z,2.70
2023-03-06T16:19:27.795Z,2.37
2023-03-06T16:21:56.854Z,2.07
2023-03-06T16:24:26.190Z,2.77
2023-03-06T16:26:55.076Z,3.00
2023-03-06T16:29:24.705Z,3.00
2023-03-06T16:31:51.994Z,3.00
2023-03-06T16:34:21.956Z,3.40
2023-03-06T16:36:50.212Z,3.00
2023-03-06T16:39:22.776Z,2.53
2023-03-06T16:41:50.877Z,3.10
2023-03-06T16:44:17.939Z,3.13
2023-03-06T16:46:47.477Z,2.87
2023-03-06T16:49:18.537Z,2.77
2023-03-06T16:51:45.683Z,3.00
2023-03-06T16:54:13.446Z,2.63
2023-03-06T16:56:40.528Z,3.03
2023-03-06T16:59:07.489Z,3.00
2023-03-06T17:01:34.642Z,2.97
2023-03-06T17:04:01.760Z,2.67
2023-03-06T17:06:28.837Z,1.73
2023-03-06T17:08:58.046Z,2.57
2023-03-06T17:11:25.260Z,2.87
2023-03-06T17:13:52.219Z,2.33
2023-03-06T17:16:19.381Z,3.00
2023-03-06T17:18:46.670Z,2.77
2023-03-06T17:21:15.776Z,2.50
2023-03-06T17:23:44.546Z,3.40
2023-03-06T17:26:20.480Z,2.60
2023-03-06T17:28:47.591Z,3.85
2023-03-06T17:31:26.758Z,2.97
2023-03-06T17:33:57.314Z,2.83
2023-03-06T17:36:24.236Z,2.57
2023-03-06T17:38:51.466Z,2.00
2023-03-06T17:41:18.617Z,2.70
2023-03-06T17:43:45.548Z,3.03
2023-03-06T17:46:13.659Z,3.20
2023-03-06T17:48:40.686Z,3.30
2023-03-06T17:51:08.386Z,3.47
2023-03-06T17:53:35.995Z,3.73
2023-03-06T17:56:12.716Z,3.40
2023-03-06T18:01:18.458Z,3.67
2023-03-06T18:03:47.901Z,3.67
2023-03-06T18:06:16.595Z,3.83
2023-03-06T18:08:44.163Z,3.80
2023-03-06T18:11:11.719Z,4.00
2023-03-06T18:13:41.727Z,3.97
2023-03-06T18:16:11.390Z,3.73
2023-03-06T18:18:38.793Z,4.10
2023-03-06T18:21:11.050Z,3.60
2023-03-06T18:23:39.998Z,4.13
2023-03-06T18:26:18.946Z,3.67
2023-03-06T18:28:49.122Z,4.43
2023-03-06T18:31:22.085Z,3.70
2023-03-06T18:33:49.928Z,3.83
2023-03-06T18:36:18.150Z,3.60
2023-03-06T18:38:45.824Z,3.87
2023-03-06T18:41:13.953Z,3.00
2023-03-06T18:43:41.053Z,3.40
2023-03-06T18:46:09.701Z,3.80
2023-03-06T18:48:37.377Z,2.70
2023-03-06T18:51:10.015Z,2.57
2023-03-06T18:53:37.325Z,3.03
2023-03-06T18:56:04.397Z,3.00
2023-03-06T18:58:31.448Z,2.50
2023-03-06T19:00:59.827Z,2.93
2023-03-06T19:03:27.505Z,2.60
2023-03-06T19:05:54.575Z,2.43
2023-03-06T19:08:21.829Z,3.33
2023-03-06T19:10:50.218Z,3.23
2023-03-06T19:13:17.337Z,2.73
2023-03-06T19:15:49.036Z,2.47
2023-03-06T19:18:18.036Z,2.83
2023-03-06T19:20:45.410Z,2.50
2023-03-06T19:23:12.386Z,2.90
2023-03-06T19:25:39.440Z,2.37
2023-03-06T19:28:06.610Z,3.00
2023-03-06T19:30:33.836Z,3.23
2023-03-06T19:33:00.842Z,2.87
2023-03-06T19:35:27.939Z,3.77
2023-03-06T19:37:55.002Z,2.60
2023-03-06T19:40:22.108Z,3.40
2023-03-06T19:42:49.979Z,3.07
2023-03-06T19:45:17.244Z,2.83
2023-03-06T19:47:44.289Z,3.50
2023-03-06T19:50:11.640Z,2.73
2023-03-06T19:52:40.768Z,3.63
2023-03-06T19:55:09.830Z,3.20
2023-03-06T19:57:37.008Z,4.17
2023-03-06T20:00:05.138Z,3.63
2023-03-06T20:02:39.927Z,3.28
2023-03-06T20:05:09.281Z,3.53
2023-03-06T20:07:36.319Z,3.90
2023-03-06T20:10:03.966Z,3.73
2023-03-06T20:12:32.764Z,3.53
2023-03-06T20:15:00.187Z,3.40
2023-03-06T20:17:27.972Z,3.37
2023-03-06T20:19:55.206Z,3.63
2023-03-06T20:22:22.222Z,3.20
2023-03-06T20:24:49.306Z,3.60
2023-03-06T20:27:16.256Z,3.30
2023-03-06T20:29:44.815Z,3.13
2023-03-06T20:32:13.341Z,3.53
2023-03-06T20:34:40.915Z,3.57
2023-03-06T20:37:09.796Z,3.00
2023-03-06T20:39:37.424Z,3.23
2023-03-06T20:42:04.827Z,2.70
2023-03-06T20:44:32.031Z,3.23
2023-03-06T20:46:59.206Z,3.07
2023-03-06T20:49:27.386Z,3.40
2023-03-06T20:51:55.721Z,3.27
2023-03-06T20:54:22.727Z,3.50
2023-03-06T20:56:50.401Z,3.20
2023-03-06T20:59:17.452Z,3.30
2023-03-06T21:01:45.810Z,3.37
2023-03-06T21:04:14.137Z,2.87
2023-03-06T21:06:46.337Z,2.97
2023-03-06T21:09:16.178Z,3.73
2023-03-06T21:11:43.354Z,3.13
2023-03-06T21:14:12.459Z,3.03
2023-03-06T21:16:40.288Z,3.20
2023-03-06T21:19:07.383Z,2.63
2023-03-06T21:21:35.123Z,2.63
2023-03-06T21:24:02.790Z,2.93
2023-03-06T21:26:33.715Z,3.00
2023-03-06T21:29:01.114Z,3.10
2023-03-06T21:31:29.074Z,2.20
2023-03-06T21:33:59.617Z,3.10
2023-03-06T21:36:27.461Z,2.83
2023-03-06T21:38:55.458Z,2.57
2023-03-06T21:41:27.923Z,2.60
2023-03-06T21:44:02.831Z,2.47
2023-03-06T21:46:30.075Z,2.80
2023-03-06T21:48:57.235Z,2.50
2023-03-06T21:51:25.893Z,2.70
2023-03-06T21:53:54.024Z,2.97
2023-03-06T21:56:23.991Z,2.60
2023-03-06T21:58:51.216Z,2.80
2023-03-06T22:01:21.828Z,2.43
2023-03-06T22:03:48.915Z,2.93
2023-03-06T22:06:21.764Z,3.17
2023-03-06T22:08:48.901Z,2.30
2023-03-06T22:11:18.493Z,2.90
2023-03-06T22:13:46.304Z,2.80
2023-03-06T22:16:14.583Z,2.27
2023-03-06T22:18:46.178Z,2.57
2023-03-06T22:21:16.163Z,2.53
2023-03-06T22:23:43.209Z,2.70
2023-03-06T22:26:13.711Z,2.70
2023-03-06T22:28:41.771Z,2.50
2023-03-06T22:31:11.414Z,2.80
2023-03-06T22:33:38.792Z,2.47
2023-03-06T22:36:14.204Z,2.50
2023-03-06T22:38:43.043Z,2.63
2023-03-06T22:41:12.813Z,2.57
2023-03-06T22:43:42.812Z,2.27
2023-03-06T22:46:13.010Z,2.47
2023-03-06T22:48:40.492Z,2.33
2023-03-06T22:51:10.372Z,2.60
2023-03-06T22:53:37.744Z,2.13
2023-03-06T22:56:06.450Z,2.10
2023-03-06T22:58:37.308Z,1.77
2023-03-06T23:01:09.974Z,2.50
2023-03-06T23:03:38.656Z,2.70
2023-03-06T23:06:14.920Z,2.47
2023-03-06T23:08:42.400Z,2.20
2023-03-06T23:11:14.682Z,2.50
2023-03-06T23:14:00.191Z,1.90
2023-03-06T23:16:45.549Z,2.17
2023-03-06T23:19:31.551Z,2.50
2023-03-06T23:22:17.332Z,2.80
2023-03-06T23:25:02.980Z,3.13
2023-03-06T23:27:30.750Z,2.83
2023-03-06T23:29:59.192Z,2.97
2023-03-06T23:32:26.239Z,3.53
2023-03-06T23:34:53.246Z,3.43
2023-03-06T23:37:20.544Z,3.27
2023-03-06T23:39:47.871Z,2.50
2023-03-06T23:42:30.468Z,2.47
2023-03-06T23:45:01.240Z,2.83
2023-03-06T23:47:32.199Z,3.20
2023-03-06T23:49:59.321Z,2.30
2023-03-06T23:52:26.854Z,2.40
2023-03-06T23:54:54.177Z,2.43
2023-03-06T23:57:21.054Z,1.90
2023-03-06T23:59:47.891Z,1.97
